createdAt,value
2018-11-29T00:00:46.964Z,67.90
2018-11-29T00:05:50.895Z,68.40
2018-11-29T00:10:54.257Z,67.20
2018-11-29T00:15:57.349Z,67.60
2018-11-29T00:21:00.395Z,66.50
2018-11-29T00:26:04.290Z,66.60
2018-11-29T00:31:07.368Z,67.60
2018-11-29T00:36:10.847Z,66.80
2018-11-29T00:41:13.936Z,67.10
2018-11-29T00:46:17.655Z,66.60
2018-11-29T00:51:20.725Z,66.20
2018-11-29T00:56:23.800Z,65.70
2018-11-29T01:01:27.145Z,65.70
2018-11-29T01:06:30.599Z,65.80
2018-11-29T01:11:33.704Z,65.90
2018-11-29T01:16:36.921Z,66.00
2018-11-29T01:21:39.956Z,65.90
2018-11-29T01:26:43.055Z,65.00
2018-11-29T01:31:46.067Z,64.90
2018-11-29T01:36:49.123Z,62.70
2018-11-29T01:41:58.881Z,62.50
2018-11-29T01:47:01.892Z,61.20
2018-11-29T01:52:05.009Z,59.50
2018-11-29T01:57:08.025Z,57.80
2018-11-29T02:02:11.208Z,56.30
2018-11-29T02:07:14.245Z,55.10
2018-11-29T02:12:17.353Z,55.00
2018-11-29T02:17:20.398Z,56.40
2018-11-29T02:22:23.414Z,55.00
2018-11-29T02:27:26.521Z,55.20
2018-11-29T02:32:29.544Z,55.40
2018-11-29T02:37:32.621Z,56.10
2018-11-29T02:42:35.664Z,56.30
2018-11-29T02:47:38.802Z,55.60
2018-11-29T02:52:41.824Z,55.60
2018-11-29T02:57:44.869Z,54.60
2018-11-29T03:02:48.081Z,54.30
2018-11-29T03:07:51.173Z,54.70
2018-11-29T03:12:54.239Z,55.00
2018-11-29T03:17:57.352Z,54.30
2018-11-29T03:23:00.363Z,54.50
2018-11-29T03:28:03.400Z,54.60
2018-11-29T03:33:06.452Z,54.30
2018-11-29T03:38:09.482Z,54.50
2018-11-29T03:43:12.493Z,54.40
2018-11-29T03:48:15.535Z,55.90
2018-11-29T03:53:18.565Z,55.00
2018-11-29T03:58:21.681Z,55.90
2018-11-29T04:03:24.741Z,55.70
2018-11-29T04:08:27.768Z,56.20
2018-11-29T04:13:30.840Z,55.90
2018-11-29T04:18:33.995Z,56.20
2018-11-29T04:23:37.030Z,56.90
2018-11-29T04:28:40.092Z,57.60
2018-11-29T04:33:43.169Z,58.50
2018-11-29T04:38:46.228Z,59.00
2018-11-29T04:43:49.804Z,58.80
2018-11-29T04:48:53.057Z,58.70
2018-11-29T04:53:56.131Z,60.00
2018-11-29T04:58:59.251Z,59.60
2018-11-29T05:04:02.328Z,59.40
2018-11-29T05:09:08.147Z,59.50
2018-11-29T05:14:11.272Z,60.60
2018-11-29T05:19:14.301Z,60.00
2018-11-29T05:24:17.356Z,60.70
2018-11-29T05:29:20.401Z,60.60
2018-11-29T05:34:23.415Z,61.80
2018-11-29T05:39:26.491Z,61.40
2018-11-29T05:44:29.542Z,61.00
2018-11-29T05:49:32.592Z,61.90
2018-11-29T05:54:35.612Z,62.50
2018-11-29T05:59:38.719Z,61.80
2018-11-29T06:04:41.762Z,61.90
2018-11-29T06:09:44.940Z,63.30
2018-11-29T06:14:48.047Z,62.90
2018-11-29T06:19:51.592Z,62.70
2018-11-29T06:24:55.467Z,63.40
2018-11-29T06:30:00.669Z,63.60
2018-11-29T06:35:05.072Z,63.40
2018-11-29T06:40:13.140Z,64.00
2018-11-29T06:45:18.673Z,64.40
2018-11-29T06:50:22.584Z,64.20
2018-11-29T06:55:26.644Z,64.50
2018-11-29T07:00:32.608Z,64.40
2018-11-29T07:05:37.128Z,64.20
2018-11-29T07:10:42.591Z,66.70
2018-11-29T07:15:47.832Z,64.30
2018-11-29T07:21:03.250Z,63.00
2018-11-29T07:26:06.612Z,63.30
2018-11-29T07:31:09.669Z,63.10
2018-11-29T07:36:12.857Z,62.70
2018-11-29T07:41:15.897Z,60.90
2018-11-29T07:46:18.911Z,59.40
2018-11-29T07:51:22.019Z,57.80
2018-11-29T07:56:25.028Z,56.20
2018-11-29T08:01:28.079Z,56.10
2018-11-29T08:06:31.133Z,54.70
2018-11-29T08:11:34.299Z,55.00
2018-11-29T08:16:37.330Z,55.20
2018-11-29T08:21:40.431Z,55.20
2018-11-29T08:26:43.441Z,54.20
2018-11-29T08:31:46.500Z,50.70
2018-11-29T08:36:49.515Z,46.80
2018-11-29T08:41:52.611Z,45.50
2018-11-29T08:46:58.057Z,46.90
2018-11-29T08:52:01.870Z,43.90
2018-11-29T08:57:04.923Z,41.90
2018-11-29T09:02:08.021Z,41.10
2018-11-29T09:07:11.827Z,43.30
2018-11-29T09:12:14.869Z,44.70
2018-11-29T09:17:17.872Z,45.40
2018-11-29T09:22:20.919Z,47.90
2018-11-29T09:27:23.952Z,47.70
2018-11-29T09:32:26.947Z,43.70
2018-11-29T09:37:29.961Z,38.10
2018-11-29T09:42:32.983Z,37.80
2018-11-29T09:47:36.233Z,37.10
2018-11-29T09:52:39.828Z,37.00
2018-11-29T09:57:43.292Z,36.50
2018-11-29T10:02:51.385Z,36.40
2018-11-29T10:07:54.486Z,36.00
2018-11-29T10:12:57.493Z,36.00
2018-11-29T10:18:00.619Z,35.50
2018-11-29T10:23:03.943Z,34.80
2018-11-29T10:28:10.496Z,34.80
2018-11-29T10:33:13.503Z,35.40
2018-11-29T10:38:16.547Z,38.00
2018-11-29T10:43:19.707Z,36.00
2018-11-29T10:48:23.684Z,37.80
2018-11-29T10:53:38.210Z,36.10
2018-11-29T10:58:46.061Z,37.20
2018-11-29T11:03:49.431Z,36.90
2018-11-29T11:08:52.468Z,35.60
2018-11-29T11:13:55.516Z,39.10
2018-11-29T11:18:58.584Z,34.70
2018-11-29T11:24:01.611Z,37.20
2018-11-29T11:29:08.890Z,37.80
2018-11-29T11:34:12.065Z,37.90
2018-11-29T11:39:15.099Z,37.10
2018-11-29T11:44:18.178Z,36.80
2018-11-29T11:49:21.202Z,36.30
2018-11-29T11:54:24.233Z,35.60
2018-11-29T11:59:27.252Z,37.50
2018-11-29T12:04:30.263Z,38.40
2018-11-29T12:09:33.260Z,38.00
2018-11-29T12:14:36.293Z,37.40
2018-11-29T12:19:39.373Z,38.70
2018-11-29T12:24:42.477Z,39.70
2018-11-29T12:29:45.498Z,38.00
2018-11-29T12:34:48.597Z,38.10
2018-11-29T12:39:51.649Z,40.80
2018-11-29T12:44:54.777Z,42.70
2018-11-29T12:49:57.905Z,43.50
2018-11-29T13:00:24.304Z,44.80
2018-11-29T13:05:27.954Z,43.80
2018-11-29T13:10:31.026Z,44.70
2018-11-29T13:15:34.435Z,46.00
2018-11-29T13:20:37.593Z,44.20
2018-11-29T13:25:40.668Z,43.80
2018-11-29T13:30:43.918Z,46.40
2018-11-29T13:35:47.089Z,48.50
2018-11-29T13:40:52.555Z,48.80
2018-11-29T13:46:00.276Z,49.30
2018-11-29T13:51:09.362Z,50.10
2018-11-29T13:56:13.885Z,50.00
2018-11-29T14:01:20.432Z,50.30
2018-11-29T14:06:24.860Z,49.80
2018-11-29T14:11:28.541Z,51.40
2018-11-29T14:16:31.716Z,50.10
2018-11-29T14:21:34.760Z,50.20
2018-11-29T14:26:37.834Z,50.50
2018-11-29T14:31:40.879Z,51.30
2018-11-29T14:36:47.604Z,51.60
2018-11-29T14:41:50.624Z,52.00
2018-11-29T14:46:53.675Z,51.50
2018-11-29T14:51:56.799Z,52.40
2018-11-29T14:56:59.835Z,52.50
2018-11-29T15:02:02.911Z,51.90
2018-11-29T15:07:06.596Z,51.70
2018-11-29T15:12:09.734Z,51.50
2018-11-29T15:17:12.825Z,51.20
2018-11-29T15:22:15.892Z,50.90
2018-11-29T15:27:18.932Z,50.30
2018-11-29T15:32:21.993Z,49.80
2018-11-29T15:37:25.037Z,49.60
2018-11-29T15:42:28.114Z,49.30
2018-11-29T15:47:31.190Z,49.10
2018-11-29T15:52:34.243Z,49.20
2018-11-29T15:57:37.282Z,48.20
2018-11-29T16:02:40.371Z,48.20
2018-11-29T16:07:43.465Z,47.30
2018-11-29T16:12:46.553Z,46.90
2018-11-29T16:17:50.481Z,49.40
2018-11-29T16:22:53.511Z,48.50
2018-11-29T16:27:56.546Z,47.80
2018-11-29T16:33:02.383Z,46.50
2018-11-29T16:38:06.107Z,46.70
2018-11-29T16:43:09.554Z,46.20
2018-11-29T16:48:12.802Z,46.50
2018-11-29T16:53:15.870Z,46.80
2018-11-29T16:58:20.912Z,50.50
2018-11-29T17:03:23.995Z,46.80
2018-11-29T17:08:27.763Z,49.00
2018-11-29T17:13:30.852Z,47.20
2018-11-29T17:18:33.916Z,49.20
2018-11-29T17:23:36.943Z,47.60
2018-11-29T17:28:40.029Z,48.40
2018-11-29T17:33:43.080Z,48.70
2018-11-29T17:38:46.180Z,49.60
2018-11-29T17:43:49.223Z,49.00
2018-11-29T17:48:52.253Z,49.20
2018-11-29T17:53:55.391Z,50.20
2018-11-29T17:58:58.446Z,50.50
2018-11-29T18:04:01.518Z,52.80
2018-11-29T18:09:09.017Z,51.60
2018-11-29T18:14:12.195Z,51.80
2018-11-29T18:19:15.288Z,52.40
2018-11-29T18:24:18.393Z,52.90
2018-11-29T18:29:21.512Z,53.00
2018-11-29T18:34:24.531Z,53.20
2018-11-29T18:39:27.619Z,53.70
2018-11-29T18:44:32.712Z,53.60
2018-11-29T18:49:35.779Z,53.80
2018-11-29T18:54:38.873Z,53.80
2018-11-29T18:59:46.108Z,53.70
2018-11-29T19:04:49.153Z,54.00
2018-11-29T19:09:52.267Z,53.70
2018-11-29T19:14:55.360Z,53.70
2018-11-29T19:19:59.460Z,53.90
2018-11-29T19:25:02.508Z,54.10
2018-11-29T19:30:10.548Z,53.60
2018-11-29T19:35:13.660Z,53.90
2018-11-29T19:40:17.155Z,54.00
2018-11-29T19:45:20.217Z,54.20
2018-11-29T19:50:23.256Z,53.00
2018-11-29T19:55:27.617Z,53.60
2018-11-29T20:00:30.652Z,53.10
2018-11-29T20:05:33.691Z,53.10
2018-11-29T20:10:36.778Z,52.70
2018-11-29T20:15:41.310Z,53.00
2018-11-29T20:20:49.600Z,52.70
2018-11-29T20:25:52.651Z,52.50
2018-11-29T20:30:55.759Z,53.50
2018-11-29T20:35:58.812Z,52.40
2018-11-29T20:41:01.838Z,52.40
2018-11-29T20:46:04.872Z,52.80
2018-11-29T20:51:07.908Z,52.50
2018-11-29T20:56:12.491Z,52.80
2018-11-29T21:01:15.519Z,53.50
2018-11-29T21:06:18.549Z,53.30
2018-11-29T21:11:21.601Z,52.90
2018-11-29T21:16:24.748Z,53.10
2018-11-29T21:21:27.789Z,54.20
2018-11-29T21:26:30.872Z,53.10
2018-11-29T21:31:33.893Z,53.40
2018-11-29T21:36:43.477Z,53.40
2018-11-29T21:41:46.536Z,53.90
2018-11-29T21:46:49.657Z,54.30
2018-11-29T21:51:52.713Z,53.80
2018-11-29T21:56:55.756Z,53.70
2018-11-29T22:01:58.804Z,54.20
2018-11-29T22:07:01.878Z,54.60
2018-11-29T22:12:04.935Z,54.10
2018-11-29T22:17:07.992Z,54.90
2018-11-29T22:22:11.015Z,54.60
2018-11-29T22:27:14.103Z,54.70
2018-11-29T22:32:17.163Z,55.50
2018-11-29T22:37:20.197Z,55.10
2018-11-29T22:42:23.233Z,55.60
2018-11-29T22:47:26.315Z,55.70
2018-11-29T22:52:29.356Z,55.70
2018-11-29T22:57:32.403Z,55.90
2018-11-29T23:02:35.553Z,56.00
2018-11-29T23:07:38.590Z,56.50
2018-11-29T23:12:41.703Z,56.30
2018-11-29T23:17:44.755Z,56.70
2018-11-29T23:22:47.798Z,56.70
2018-11-29T23:27:50.894Z,57.00
2018-11-29T23:32:53.935Z,57.00
2018-11-29T23:37:56.981Z,57.10
2018-11-29T23:43:00.032Z,57.70
2018-11-29T23:48:03.080Z,57.60
2018-11-29T23:53:06.154Z,57.60
2018-11-29T23:58:09.215Z,57.70
